createdAt,value
2018-06-20T00:00:32.530Z,1019.31
2018-06-20T00:01:42.468Z,1019.29
2018-06-20T00:02:51.894Z,1019.32
2018-06-20T00:04:01.104Z,1019.3
2018-06-20T00:05:10.015Z,1019.3
2018-06-20T00:06:18.935Z,1019.3
2018-06-20T00:07:28.426Z,1019.3
2018-06-20T00:08:38.434Z,1019.3
2018-06-20T00:09:48.138Z,1019.31
2018-06-20T00:10:57.821Z,1019.29
2018-06-20T00:12:07.251Z,1019.27
2018-06-20T00:13:16.959Z,1019.24
2018-06-20T00:14:25.607Z,1019.24
2018-06-20T00:15:34.520Z,1019.24
2018-06-20T00:16:44.209Z,1019.25
2018-06-20T00:17:53.669Z,1019.23
2018-06-20T00:19:03.132Z,1019.2
2018-06-20T00:20:13.091Z,1019.21
2018-06-20T00:21:22.243Z,1019.19
2018-06-20T00:22:31.151Z,1019.14
2018-06-20T00:23:41.075Z,1019.14
2018-06-20T00:24:50.519Z,1019.1
2018-06-20T00:25:59.947Z,1019.14
2018-06-20T00:27:09.133Z,1019.15
2018-06-20T00:28:18.806Z,1019.15
2018-06-20T00:29:27.725Z,1019.12
2018-06-20T00:30:37.147Z,1019.14
2018-06-20T00:31:46.371Z,1019.13
2018-06-20T00:32:55.808Z,1019.13
2018-06-20T00:34:05.770Z,1019.12
2018-06-20T00:35:14.952Z,1019.09
2018-06-20T00:36:24.651Z,1019.1
2018-06-20T00:37:34.591Z,1019.05
2018-06-20T00:38:44.032Z,1019.07
2018-06-20T00:39:53.467Z,1019.05
2018-06-20T00:41:03.156Z,1019.09
2018-06-20T00:42:12.322Z,1019.11
2018-06-20T00:43:21.531Z,1019.1
2018-06-20T00:44:30.979Z,1019.14
2018-06-20T00:45:40.415Z,1019.1
2018-06-20T00:46:49.855Z,1019.13
2018-06-20T00:47:59.555Z,1019.07
2018-06-20T00:49:09.002Z,1019.04
2018-06-20T00:50:18.178Z,1019.03
2018-06-20T00:51:27.605Z,1019.03
2018-06-20T00:52:37.286Z,1019.02
2018-06-20T00:53:46.239Z,1019.02
2018-06-20T00:54:55.421Z,1019
2018-06-20T00:56:05.116Z,1019
2018-06-20T00:57:14.282Z,1018.95
2018-06-20T00:58:23.198Z,1019
2018-06-20T00:59:32.874Z,1018.95
2018-06-20T01:00:42.298Z,1018.97
2018-06-20T01:01:51.973Z,1018.92
2018-06-20T01:03:01.398Z,1018.96
2018-06-20T01:04:10.803Z,1018.94
2018-06-20T01:05:19.978Z,1018.91
2018-06-20T01:06:29.136Z,1018.91
2018-06-20T01:07:38.802Z,1018.89
2018-06-20T01:08:47.953Z,1018.86
2018-06-20T01:09:56.860Z,1018.92
2018-06-20T01:11:06.546Z,1018.92
2018-06-20T01:12:15.732Z,1018.92
2018-06-20T01:13:25.147Z,1018.93
2018-06-20T01:14:34.560Z,1018.9
2018-06-20T01:15:43.736Z,1018.91
2018-06-20T01:16:53.432Z,1018.92
2018-06-20T01:18:03.118Z,1018.92
2018-06-20T01:19:12.027Z,1018.94
2018-06-20T01:20:21.715Z,1018.89
2018-06-20T01:21:31.416Z,1018.87
2018-06-20T01:22:40.848Z,1018.85
2018-06-20T01:23:49.767Z,1018.83
2018-06-20T01:24:59.225Z,1018.82
2018-06-20T01:26:08.656Z,1018.88
2018-06-20T01:27:18.080Z,1018.85
2018-06-20T01:28:27.760Z,1018.89
2018-06-20T01:29:37.194Z,1018.88
2018-06-20T01:30:46.877Z,1018.86
2018-06-20T01:31:56.048Z,1018.89
2018-06-20T01:33:05.968Z,1018.84
2018-06-20T01:34:15.131Z,1018.83
2018-06-20T01:35:24.806Z,1018.84
2018-06-20T01:36:33.717Z,1018.83
2018-06-20T01:37:43.132Z,1018.85
2018-06-20T01:38:52.550Z,1018.82
2018-06-20T01:40:01.968Z,1018.84
2018-06-20T01:41:11.388Z,1018.85
2018-06-20T01:42:20.806Z,1018.84
2018-06-20T01:43:30.224Z,1018.82
2018-06-20T01:44:39.649Z,1018.77
2018-06-20T01:45:48.828Z,1018.78
2018-06-20T01:46:58.818Z,1018.8
2018-06-20T01:48:08.000Z,1018.77
2018-06-20T01:49:17.179Z,1018.83
2018-06-20T01:50:26.342Z,1018.8
2018-06-20T01:51:36.031Z,1018.82
2018-06-20T01:52:45.718Z,1018.76
2018-06-20T01:53:54.629Z,1018.76
2018-06-20T01:55:04.073Z,1018.75
2018-06-20T01:56:13.508Z,1018.72
2018-06-20T01:57:23.245Z,1018.73
2018-06-20T01:58:32.920Z,1018.67
2018-06-20T01:59:41.586Z,1018.7
2018-06-20T02:00:50.761Z,1018.7
2018-06-20T02:02:00.190Z,1018.72
2018-06-20T02:03:09.622Z,1018.72
2018-06-20T02:04:19.047Z,1018.75
2018-06-20T02:05:28.212Z,1018.7
2018-06-20T02:06:37.645Z,1018.71
2018-06-20T02:07:46.555Z,1018.66
2018-06-20T02:08:55.749Z,1018.72
2018-06-20T02:10:05.686Z,1018.69
2018-06-20T02:11:14.860Z,1018.67
2018-06-20T02:12:24.042Z,1018.67
2018-06-20T02:13:33.229Z,1018.63
2018-06-20T02:14:42.410Z,1018.6
2018-06-20T02:15:51.591Z,1018.64
2018-06-20T02:17:00.776Z,1018.58
2018-06-20T02:18:10.240Z,1018.6
2018-06-20T02:19:19.155Z,1018.64
2018-06-20T02:20:28.331Z,1018.64
2018-06-20T02:21:37.487Z,1018.63
2018-06-20T02:22:46.647Z,1018.59
2018-06-20T02:23:56.317Z,1018.62
2018-06-20T02:25:05.764Z,1018.61
2018-06-20T02:26:14.942Z,1018.6
2018-06-20T02:27:24.124Z,1018.64
2018-06-20T02:28:34.066Z,1018.63
2018-06-20T02:29:43.491Z,1018.62
2018-06-20T02:30:52.661Z,1018.62
2018-06-20T02:32:02.347Z,1018.57
2018-06-20T02:33:11.762Z,1018.54
2018-06-20T02:34:21.176Z,1018.53
2018-06-20T02:35:30.863Z,1018.5
2018-06-20T02:36:40.581Z,1018.49
2018-06-20T02:37:49.894Z,1018.48
2018-06-20T02:38:59.586Z,1018.46
2018-06-20T02:40:09.033Z,1018.45
2018-06-20T02:41:18.460Z,1018.46
2018-06-20T02:42:28.167Z,1018.45
2018-06-20T02:43:37.608Z,1018.41
2018-06-20T02:44:46.792Z,1018.43
2018-06-20T02:45:55.981Z,1018.44
2018-06-20T02:47:05.674Z,1018.4
2018-06-20T02:48:15.114Z,1018.39
2018-06-20T02:49:24.826Z,1018.39
2018-06-20T02:50:34.283Z,1018.38
2018-06-20T02:51:43.730Z,1018.36
2018-06-20T02:52:53.403Z,1018.36
2018-06-20T02:54:02.832Z,1018.33
2018-06-20T02:55:12.545Z,1018.4
2018-06-20T02:56:21.974Z,1018.42
2018-06-20T02:57:31.930Z,1018.35
2018-06-20T02:58:41.614Z,1018.42
2018-06-20T02:59:50.532Z,1018.41
2018-06-20T03:00:59.451Z,1018.42
2018-06-20T03:02:08.905Z,1018.43
2018-06-20T03:03:18.077Z,1018.43
2018-06-20T03:04:27.778Z,1018.47
2018-06-20T03:05:36.690Z,1018.47
2018-06-20T03:06:46.636Z,1018.41
2018-06-20T03:07:56.338Z,1018.42
2018-06-20T03:09:05.779Z,1018.41
2018-06-20T03:10:14.966Z,1018.42
2018-06-20T03:11:24.395Z,1018.41
2018-06-20T03:12:33.572Z,1018.38
2018-06-20T03:13:43.265Z,1018.43
2018-06-20T03:14:52.952Z,1018.38
2018-06-20T03:16:02.916Z,1018.37
2018-06-20T03:17:12.356Z,1018.39
2018-06-20T03:18:22.047Z,1018.36
2018-06-20T03:19:31.754Z,1018.38
2018-06-20T03:20:41.677Z,1018.36
2018-06-20T03:21:51.368Z,1018.33
2018-06-20T03:23:00.800Z,1018.32
2018-06-20T03:24:10.491Z,1018.31
2018-06-20T03:25:20.170Z,1018.3
2018-06-20T03:26:29.838Z,1018.3
2018-06-20T03:27:39.549Z,1018.32
2018-06-20T03:28:49.495Z,1018.3
2018-06-20T03:29:58.401Z,1018.31
2018-06-20T03:31:07.573Z,1018.32
2018-06-20T03:32:17.538Z,1018.33
2018-06-20T03:33:27.230Z,1018.33
2018-06-20T03:34:36.925Z,1018.32
2018-06-20T03:35:46.388Z,1018.3
2018-06-20T03:36:55.338Z,1018.31
2018-06-20T03:38:04.522Z,1018.27
2018-06-20T03:39:14.204Z,1018.24
2018-06-20T03:40:23.890Z,1018.21
2018-06-20T03:41:33.335Z,1018.23
2018-06-20T03:42:42.495Z,1018.25
2018-06-20T03:43:52.460Z,1018.21
2018-06-20T03:45:01.876Z,1018.24
2018-06-20T03:46:11.805Z,1018.23
2018-06-20T03:47:21.224Z,1018.24
2018-06-20T03:48:30.654Z,1018.19
2018-06-20T03:49:39.824Z,1018.17
2018-06-20T03:50:49.243Z,1018.15
2018-06-20T03:51:58.925Z,1018.15
2018-06-20T03:53:08.619Z,1018.19
2018-06-20T03:54:18.306Z,1018.18
2018-06-20T03:55:27.207Z,1018.17
2018-06-20T03:56:36.395Z,1018.16
2018-06-20T03:57:45.819Z,1018.18
2018-06-20T03:58:55.760Z,1018.16
2018-06-20T04:00:05.188Z,1018.14
2018-06-20T04:01:14.898Z,1018.15
2018-06-20T04:02:24.689Z,1018.14
2018-06-20T04:03:34.209Z,1018.11
2018-06-20T04:04:43.386Z,1018.11
2018-06-20T04:05:52.846Z,1018.06
2018-06-20T04:07:02.020Z,1018.09
2018-06-20T04:08:11.444Z,1018.08
2018-06-20T04:09:20.865Z,1018.07
2018-06-20T04:10:30.035Z,1018.09
2018-06-20T04:11:39.480Z,1018.12
2018-06-20T04:12:48.440Z,1018.1
2018-06-20T04:13:57.767Z,1018.11
2018-06-20T04:15:07.222Z,1018.16
2018-06-20T04:16:16.147Z,1018.12
2018-06-20T04:17:25.601Z,1018.18
2018-06-20T04:18:34.514Z,1018.18
2018-06-20T04:19:43.682Z,1018.19
2018-06-20T04:20:52.870Z,1018.17
2018-06-20T04:22:02.563Z,1018.19
2018-06-20T04:23:12.241Z,1018.16
2018-06-20T04:24:21.671Z,1018.19
2018-06-20T04:25:31.112Z,1018.2
2018-06-20T04:26:39.765Z,1018.18
2018-06-20T04:27:49.449Z,1018.17
2018-06-20T04:28:58.622Z,1018.14
2018-06-20T04:30:07.789Z,1018.15
2018-06-20T04:31:17.788Z,1018.14
2018-06-20T04:32:27.213Z,1018.13
2018-06-20T04:33:36.371Z,1018.09
2018-06-20T04:34:45.809Z,1018.12
2018-06-20T04:35:55.544Z,1018.11
2018-06-20T04:37:05.229Z,1018.12
2018-06-20T04:38:14.137Z,1018.13
2018-06-20T04:39:23.294Z,1018.1
2018-06-20T04:40:32.773Z,1018.12
2018-06-20T04:41:41.928Z,1018.08
2018-06-20T04:42:51.095Z,1018.09
2018-06-20T04:44:00.773Z,1018.08
2018-06-20T04:45:09.956Z,1018.11
2018-06-20T04:46:19.125Z,1018.09
2018-06-20T04:47:28.286Z,1018.13
2018-06-20T04:48:37.695Z,1018.12
2018-06-20T04:49:47.368Z,1018.08
2018-06-20T04:50:56.536Z,1018.09
2018-06-20T04:52:06.248Z,1018.05
2018-06-20T04:53:15.171Z,1018.06
2018-06-20T04:54:24.647Z,1018.03
2018-06-20T04:55:34.383Z,1018.05
2018-06-20T04:56:44.091Z,1018.03
2018-06-20T04:57:53.516Z,1018.05
2018-06-20T04:59:03.209Z,1018.06
2018-06-20T05:00:12.645Z,1018.04
2018-06-20T05:01:21.824Z,1018.02
2018-06-20T05:02:31.251Z,1018.05
2018-06-20T05:03:40.409Z,1018.02
2018-06-20T05:04:49.575Z,1018.04
2018-06-20T05:05:58.745Z,1018.01
2018-06-20T05:07:07.905Z,1018.05
2018-06-20T05:08:17.573Z,1018.01
2018-06-20T05:09:26.233Z,1017.99
2018-06-20T05:10:35.657Z,1018.03
2018-06-20T05:11:44.813Z,1018.02
2018-06-20T05:12:54.270Z,1018.07
2018-06-20T05:14:04.002Z,1018.02
2018-06-20T05:15:13.447Z,1018.01
2018-06-20T05:16:22.611Z,1018.05
2018-06-20T05:17:32.022Z,1018.04
2018-06-20T05:18:41.451Z,1018.05
2018-06-20T05:19:50.882Z,1018.08
2018-06-20T05:21:00.055Z,1018.08
2018-06-20T05:22:09.226Z,1018.08
2018-06-20T05:23:18.652Z,1018.11
2018-06-20T05:24:27.797Z,1018.08
2018-06-20T05:25:37.214Z,1018.07
2018-06-20T05:26:46.115Z,1018.07
2018-06-20T05:27:55.307Z,1018.05
2018-06-20T05:29:04.495Z,1018.03
2018-06-20T05:30:13.918Z,1018.04
2018-06-20T05:31:23.375Z,1018.02
2018-06-20T05:32:33.102Z,1018.03
2018-06-20T05:33:41.995Z,1018.02
2018-06-20T05:34:51.178Z,1018.03
2018-06-20T05:36:00.375Z,1018.02
2018-06-20T05:37:09.805Z,1018.05
2018-06-20T05:38:18.770Z,1018.06
2018-06-20T05:39:27.933Z,1018.05
2018-06-20T05:40:37.615Z,1018.09
2018-06-20T05:41:47.114Z,1018.07
2018-06-20T05:42:57.016Z,1018.05
2018-06-20T05:44:06.683Z,1018.05
2018-06-20T05:45:16.359Z,1018.03
2018-06-20T05:46:25.274Z,1017.99
2018-06-20T05:47:34.182Z,1018
2018-06-20T05:48:43.856Z,1018.02
2018-06-20T05:49:53.580Z,1017.99
2018-06-20T05:51:02.993Z,1018.02
2018-06-20T05:52:12.164Z,1017.99
2018-06-20T05:53:21.875Z,1018.01
2018-06-20T05:54:31.295Z,1017.96
2018-06-20T05:55:40.487Z,1017.97
2018-06-20T05:56:49.916Z,1017.96
2018-06-20T05:57:59.085Z,1017.97
2018-06-20T05:59:08.524Z,1017.97
2018-06-20T06:00:18.210Z,1017.94
2018-06-20T06:01:28.256Z,1017.95
2018-06-20T06:02:37.448Z,1018
2018-06-20T06:03:47.135Z,1017.96
2018-06-20T06:04:56.311Z,1017.96
2018-06-20T06:06:05.794Z,1017.99
2018-06-20T06:07:15.248Z,1018.01
2018-06-20T06:08:24.424Z,1018.03
2018-06-20T06:09:33.846Z,1018.03
2018-06-20T06:10:43.257Z,1017.98
2018-06-20T06:11:51.916Z,1017.99
2018-06-20T06:13:01.419Z,1017.99
2018-06-20T06:14:10.872Z,1018
2018-06-20T06:15:19.762Z,1017.99
2018-06-20T06:16:28.919Z,1018.01
2018-06-20T06:17:38.767Z,1017.97
2018-06-20T06:18:48.447Z,1018.02
2018-06-20T06:19:57.918Z,1018
2018-06-20T06:21:07.862Z,1017.94
2018-06-20T06:22:17.288Z,1017.97
2018-06-20T06:23:26.708Z,1017.95
2018-06-20T06:24:36.188Z,1017.95
2018-06-20T06:25:45.088Z,1017.87
2018-06-20T06:26:54.263Z,1017.84
2018-06-20T06:28:04.213Z,1017.84
2018-06-20T06:29:13.637Z,1017.85
2018-06-20T06:30:22.794Z,1017.87
2018-06-20T06:31:32.848Z,1017.91
2018-06-20T06:32:42.275Z,1017.95
2018-06-20T06:33:51.451Z,1017.94
2018-06-20T06:35:00.160Z,1017.94
2018-06-20T06:36:09.613Z,1017.91
2018-06-20T06:37:18.555Z,1017.88
2018-06-20T06:38:27.751Z,1017.89
2018-06-20T06:39:37.256Z,1017.86
2018-06-20T06:40:46.427Z,1017.88
2018-06-20T06:41:56.112Z,1017.93
2018-06-20T06:43:05.535Z,1017.89
2018-06-20T06:44:14.967Z,1017.91
2018-06-20T06:45:24.652Z,1017.89
2018-06-20T06:46:33.557Z,1017.94
2018-06-20T06:47:42.789Z,1017.94
2018-06-20T06:48:51.707Z,1017.89
2018-06-20T06:50:01.772Z,1017.9
2018-06-20T06:51:11.779Z,1017.88
2018-06-20T06:52:20.964Z,1017.88
2018-06-20T06:53:30.648Z,1017.86
2018-06-20T06:54:40.364Z,1017.84
2018-06-20T06:55:49.821Z,1017.89
2018-06-20T06:56:59.749Z,1017.86
2018-06-20T06:58:09.181Z,1017.84
2018-06-20T06:59:18.087Z,1017.85
2018-06-20T07:00:27.505Z,1017.79
2018-06-20T07:01:37.166Z,1017.85
2018-06-20T07:02:46.656Z,1017.83
2018-06-20T07:03:56.005Z,1017.83
2018-06-20T07:05:04.928Z,1017.87
2018-06-20T07:06:14.861Z,1017.9
2018-06-20T07:07:24.555Z,1017.86
2018-06-20T07:08:33.565Z,1017.85
2018-06-20T07:09:43.256Z,1017.85
2018-06-20T07:10:52.735Z,1017.86
2018-06-20T07:12:02.413Z,1017.8
2018-06-20T07:13:12.099Z,1017.83
2018-06-20T07:14:21.270Z,1017.8
2018-06-20T07:15:30.728Z,1017.8
2018-06-20T07:16:40.582Z,1017.82
2018-06-20T07:17:49.739Z,1017.8
2018-06-20T07:18:59.180Z,1017.79
2018-06-20T07:20:08.609Z,1017.81
2018-06-20T07:21:18.312Z,1017.83
2018-06-20T07:22:27.491Z,1017.83
2018-06-20T07:23:37.251Z,1017.78
2018-06-20T07:24:46.916Z,1017.82
2018-06-20T07:25:55.827Z,1017.83
2018-06-20T07:27:05.242Z,1017.84
2018-06-20T07:28:14.672Z,1017.82
2018-06-20T07:29:23.872Z,1017.82
2018-06-20T07:30:33.691Z,1017.81
2018-06-20T07:31:43.427Z,1017.82
2018-06-20T07:32:52.861Z,1017.76
2018-06-20T07:34:02.055Z,1017.78
2018-06-20T07:35:12.275Z,1017.8
2018-06-20T07:36:22.108Z,1017.74
2018-06-20T07:37:32.073Z,1017.78
2018-06-20T07:38:41.499Z,1017.73
2018-06-20T07:39:51.190Z,1017.75
2018-06-20T07:41:00.868Z,1017.7
2018-06-20T07:42:10.297Z,1017.69
2018-06-20T07:43:20.007Z,1017.68
2018-06-20T07:44:28.954Z,1017.65
2018-06-20T07:45:38.126Z,1017.66
2018-06-20T07:46:47.021Z,1017.64
2018-06-20T07:47:55.980Z,1017.67
2018-06-20T07:49:05.553Z,1017.69
2018-06-20T07:50:14.987Z,1017.65
2018-06-20T07:51:24.413Z,1017.67
2018-06-20T07:52:33.589Z,1017.64
2018-06-20T07:53:43.314Z,1017.67
2018-06-20T07:54:52.479Z,1017.66
2018-06-20T07:56:02.196Z,1017.65
2018-06-20T07:57:12.145Z,1017.64
2018-06-20T07:58:22.105Z,1017.66
2018-06-20T07:59:31.593Z,1017.63
2018-06-20T08:00:41.185Z,1017.67
2018-06-20T08:01:51.307Z,1017.62
2018-06-20T08:03:00.757Z,1017.59
2018-06-20T08:04:10.736Z,1017.61
2018-06-20T08:05:20.568Z,1017.64
2018-06-20T08:06:29.385Z,1017.61
2018-06-20T08:07:38.906Z,1017.56
2018-06-20T08:08:48.111Z,1017.57
2018-06-20T08:09:57.108Z,1017.54
2018-06-20T08:11:06.850Z,1017.55
2018-06-20T08:12:16.335Z,1017.6
2018-06-20T08:13:25.877Z,1017.62
2018-06-20T08:14:35.416Z,1017.61
2018-06-20T08:15:44.417Z,1017.55
2018-06-20T08:16:53.874Z,1017.52
2018-06-20T08:18:03.669Z,1017.5
2018-06-20T08:19:12.876Z,1017.52
2018-06-20T08:20:22.346Z,1017.51
2018-06-20T08:21:31.522Z,1017.51
2018-06-20T08:22:40.957Z,1017.53
2018-06-20T08:23:50.369Z,1017.55
2018-06-20T08:24:59.846Z,1017.54
2018-06-20T08:26:09.009Z,1017.56
2018-06-20T08:27:18.434Z,1017.57
2018-06-20T08:28:27.600Z,1017.59
2018-06-20T08:29:37.288Z,1017.58
2018-06-20T08:30:46.729Z,1017.59
2018-06-20T08:31:56.689Z,1017.61
2018-06-20T08:33:06.122Z,1017.6
2018-06-20T08:34:15.537Z,1017.57
2018-06-20T08:35:24.710Z,1017.56
2018-06-20T08:36:34.674Z,1017.59
2018-06-20T08:37:43.593Z,1017.59
2018-06-20T08:38:53.279Z,1017.59
2018-06-20T08:40:02.203Z,1017.56
2018-06-20T08:41:11.666Z,1017.58
2018-06-20T08:42:21.176Z,1017.56
2018-06-20T08:43:31.523Z,1017.59
2018-06-20T08:44:41.463Z,1017.55
2018-06-20T08:45:51.155Z,1017.6
2018-06-20T08:47:00.839Z,1017.54
2018-06-20T08:48:10.274Z,1017.49
2018-06-20T08:49:20.200Z,1017.5
2018-06-20T08:50:29.111Z,1017.51
2018-06-20T08:51:39.093Z,1017.47
2018-06-20T08:52:47.997Z,1017.47
2018-06-20T08:53:57.256Z,1017.47
2018-06-20T08:55:06.926Z,1017.5
2018-06-20T08:56:15.829Z,1017.44
2018-06-20T08:57:25.015Z,1017.46
2018-06-20T08:58:34.432Z,1017.45
2018-06-20T08:59:43.652Z,1017.41
2018-06-20T09:00:52.825Z,1017.38
2018-06-20T09:02:02.509Z,1017.4
2018-06-20T09:03:12.192Z,1017.39
2018-06-20T09:04:21.369Z,1017.37
2018-06-20T09:05:31.050Z,1017.34
2018-06-20T09:06:40.546Z,1017.34
2018-06-20T09:07:49.463Z,1017.33
2018-06-20T09:08:58.894Z,1017.33
2018-06-20T09:10:08.076Z,1017.33
2018-06-20T09:11:17.257Z,1017.3
2018-06-20T09:12:26.725Z,1017.34
2018-06-20T09:13:35.736Z,1017.3
2018-06-20T09:14:45.154Z,1017.29
2018-06-20T09:15:54.328Z,1017.27
2018-06-20T09:17:04.015Z,1017.26
2018-06-20T09:18:13.198Z,1017.25
2018-06-20T09:19:23.256Z,1017.22
2018-06-20T09:20:32.751Z,1017.23
2018-06-20T09:21:42.253Z,1017.21
2018-06-20T09:22:51.151Z,1017.19
2018-06-20T09:24:01.099Z,1017.18
2018-06-20T09:25:10.790Z,1017.16
2018-06-20T09:26:20.460Z,1017.15
2018-06-20T09:27:29.880Z,1017.12
2018-06-20T09:28:39.312Z,1017.13
2018-06-20T09:29:48.209Z,1017.11
2018-06-20T09:30:57.956Z,1017.12
2018-06-20T09:32:07.393Z,1017.11
2018-06-20T09:33:16.556Z,1017.14
2018-06-20T09:34:25.706Z,1017.1
2018-06-20T09:35:35.125Z,1017.14
2018-06-20T09:36:45.082Z,1017.15
2018-06-20T09:37:54.775Z,1017.17
2018-06-20T09:39:04.186Z,1017.13
2018-06-20T09:40:13.898Z,1017.14
2018-06-20T09:41:23.615Z,1017.1
2018-06-20T09:42:33.030Z,1017.08
2018-06-20T09:43:41.922Z,1017.03
2018-06-20T09:44:51.407Z,1017.08
2018-06-20T09:46:00.858Z,1017.06
2018-06-20T09:47:09.717Z,1017.03
2018-06-20T09:48:19.388Z,1017.08
2018-06-20T09:49:28.803Z,1017.05
2018-06-20T09:50:38.768Z,1017.05
2018-06-20T09:51:48.450Z,1017.04
2018-06-20T09:52:58.117Z,1017.05
2018-06-20T09:54:07.007Z,1017.04
2018-06-20T09:55:15.656Z,1017
2018-06-20T09:56:25.340Z,1016.99
2018-06-20T09:57:34.515Z,1017.04
2018-06-20T09:58:44.223Z,1017
2018-06-20T09:59:53.912Z,1017
2018-06-20T10:01:03.341Z,1016.99
2018-06-20T10:02:12.765Z,1016.96
2018-06-20T10:03:22.489Z,1016.97
2018-06-20T10:04:32.441Z,1016.97
2018-06-20T10:05:41.613Z,1016.95
2018-06-20T10:06:50.858Z,1016.93
2018-06-20T10:08:00.110Z,1016.92
2018-06-20T10:09:09.786Z,1016.95
2018-06-20T10:10:18.702Z,1016.95
2018-06-20T10:11:27.875Z,1016.96
2018-06-20T10:12:37.539Z,1016.91
2018-06-20T10:13:47.259Z,1016.95
2018-06-20T10:14:56.694Z,1016.89
2018-06-20T10:16:06.111Z,1016.9
2018-06-20T10:17:15.561Z,1016.89
2018-06-20T10:18:25.225Z,1016.9
2018-06-20T10:19:34.148Z,1016.89
2018-06-20T10:20:43.573Z,1016.85
2018-06-20T10:21:53.005Z,1016.85
2018-06-20T10:23:02.191Z,1016.8
2018-06-20T10:24:11.679Z,1016.82
2018-06-20T10:25:21.654Z,1016.76
2018-06-20T10:26:31.096Z,1016.75
2018-06-20T10:27:40.531Z,1016.75
2018-06-20T10:28:49.690Z,1016.76
2018-06-20T10:29:58.863Z,1016.77
2018-06-20T10:31:07.780Z,1016.77
2018-06-20T10:32:17.476Z,1016.78
2018-06-20T10:33:26.650Z,1016.76
2018-06-20T10:34:35.607Z,1016.75
2018-06-20T10:35:44.269Z,1016.72
2018-06-20T10:36:53.974Z,1016.75
2018-06-20T10:38:03.402Z,1016.73
2018-06-20T10:39:12.861Z,1016.72
2018-06-20T10:40:22.807Z,1016.69
2018-06-20T10:41:32.219Z,1016.7
2018-06-20T10:42:41.970Z,1016.66
2018-06-20T10:43:50.868Z,1016.67
2018-06-20T10:45:00.561Z,1016.63
2018-06-20T10:46:10.320Z,1016.64
2018-06-20T10:47:20.233Z,1016.66
2018-06-20T10:48:29.656Z,1016.65
2018-06-20T10:49:38.573Z,1016.59
2018-06-20T10:50:47.486Z,1016.64
2018-06-20T10:51:56.669Z,1016.63
2018-06-20T10:53:06.110Z,1016.61
2018-06-20T10:54:15.324Z,1016.59
2018-06-20T10:55:25.524Z,1016.59
2018-06-20T10:56:34.701Z,1016.57
2018-06-20T10:57:44.370Z,1016.6
2018-06-20T10:58:54.073Z,1016.53
2018-06-20T11:00:03.760Z,1016.52
2018-06-20T11:01:13.452Z,1016.51
2018-06-20T11:02:23.195Z,1016.51
2018-06-20T11:03:32.892Z,1016.5
2018-06-20T11:04:42.563Z,1016.48
2018-06-20T11:05:51.726Z,1016.49
2018-06-20T11:07:01.215Z,1016.44
2018-06-20T11:08:11.599Z,1016.42
2018-06-20T11:09:20.762Z,1016.38
2018-06-20T11:10:29.947Z,1016.39
2018-06-20T11:11:39.633Z,1016.35
2018-06-20T11:12:49.060Z,1016.36
2018-06-20T11:13:58.309Z,1016.34
2018-06-20T11:15:07.747Z,1016.33
2018-06-20T11:16:17.220Z,1016.37
2018-06-20T11:17:26.698Z,1016.28
2018-06-20T11:18:36.386Z,1016.27
2018-06-20T11:19:45.352Z,1016.3
2018-06-20T11:20:54.520Z,1016.26
2018-06-20T11:22:03.939Z,1016.27
2018-06-20T11:23:13.413Z,1016.24
2018-06-20T11:24:23.679Z,1016.2
2018-06-20T11:25:32.864Z,1016.22
2018-06-20T11:26:42.286Z,1016.25
2018-06-20T11:27:51.446Z,1016.26
2018-06-20T11:29:00.898Z,1016.19
2018-06-20T11:30:09.818Z,1016.19
2018-06-20T11:31:18.998Z,1016.14
2018-06-20T11:32:28.193Z,1016.16
2018-06-20T11:33:37.636Z,1016.12
2018-06-20T11:34:46.792Z,1016.12
2018-06-20T11:35:56.732Z,1016.13
2018-06-20T11:37:06.180Z,1016.13
2018-06-20T11:38:15.859Z,1016.11
2018-06-20T11:39:25.862Z,1016.08
2018-06-20T11:40:35.612Z,1016.11
2018-06-20T11:41:45.092Z,1016.05
2018-06-20T11:42:54.531Z,1016.03
2018-06-20T11:44:03.994Z,1016.02
2018-06-20T11:45:13.163Z,1015.98
2018-06-20T11:46:22.847Z,1015.98
2018-06-20T11:47:32.549Z,1015.95
2018-06-20T11:48:42.274Z,1015.93
2018-06-20T11:49:51.699Z,1015.9
2018-06-20T11:51:02.051Z,1015.84
2018-06-20T11:52:11.485Z,1015.87
2018-06-20T11:53:20.933Z,1015.89
2018-06-20T11:54:30.619Z,1015.85
2018-06-20T11:55:39.793Z,1015.84
2018-06-20T11:56:49.212Z,1015.83
2018-06-20T11:57:58.628Z,1015.85
2018-06-20T11:59:08.107Z,1015.85
2018-06-20T12:00:17.787Z,1015.82
2018-06-20T12:01:27.462Z,1015.78
2018-06-20T12:02:36.625Z,1015.75
2018-06-20T12:03:46.295Z,1015.73
2018-06-20T12:04:55.883Z,1015.72
2018-06-20T12:06:05.296Z,1015.7
2018-06-20T12:07:14.481Z,1015.65
2018-06-20T12:08:23.661Z,1015.67
2018-06-20T12:09:32.842Z,1015.65
2018-06-20T12:10:42.010Z,1015.66
2018-06-20T12:11:51.185Z,1015.66
2018-06-20T12:13:00.866Z,1015.63
2018-06-20T12:14:10.295Z,1015.65
2018-06-20T12:15:19.472Z,1015.65
2018-06-20T12:16:28.911Z,1015.59
2018-06-20T12:17:37.568Z,1015.58
2018-06-20T12:18:46.505Z,1015.56
2018-06-20T12:19:55.933Z,1015.56
2018-06-20T12:21:05.667Z,1015.54
2018-06-20T12:22:15.352Z,1015.51
2018-06-20T12:23:24.776Z,1015.52
2018-06-20T12:24:34.713Z,1015.49
2018-06-20T12:25:43.624Z,1015.46
2018-06-20T12:26:53.061Z,1015.46
2018-06-20T12:28:01.999Z,1015.4
2018-06-20T12:29:11.724Z,1015.43
2018-06-20T12:30:21.011Z,1015.43
2018-06-20T12:31:29.926Z,1015.41
2018-06-20T12:32:39.358Z,1015.42
2018-06-20T12:33:49.038Z,1015.38
2018-06-20T12:34:58.485Z,1015.38
2018-06-20T12:36:07.900Z,1015.37
2018-06-20T12:37:17.306Z,1015.37
2018-06-20T12:38:26.462Z,1015.36
2018-06-20T12:39:35.893Z,1015.35
2018-06-20T12:40:44.867Z,1015.35
2018-06-20T12:41:54.407Z,1015.34
2018-06-20T12:43:03.847Z,1015.33
2018-06-20T12:44:13.526Z,1015.35
2018-06-20T12:45:22.699Z,1015.35
2018-06-20T12:46:32.400Z,1015.35
2018-06-20T12:47:41.596Z,1015.38
2018-06-20T12:48:51.025Z,1015.37
2018-06-20T12:50:00.465Z,1015.33
2018-06-20T12:51:09.378Z,1015.33
2018-06-20T12:52:18.538Z,1015.31
2018-06-20T12:53:28.065Z,1015.31
2018-06-20T12:54:37.738Z,1015.27
2018-06-20T12:55:47.490Z,1015.28
2018-06-20T12:56:57.170Z,1015.24
2018-06-20T12:58:06.351Z,1015.29
2018-06-20T12:59:15.812Z,1015.22
2018-06-20T13:00:24.986Z,1015.24
2018-06-20T13:01:34.678Z,1015.24
2018-06-20T13:02:43.837Z,1015.23
2018-06-20T13:03:53.260Z,1015.2
2018-06-20T13:05:03.020Z,1015.23
2018-06-20T13:06:12.440Z,1015.21
2018-06-20T13:07:21.852Z,1015.25
2018-06-20T13:08:31.562Z,1015.19
2018-06-20T13:09:41.251Z,1015.14
2018-06-20T13:10:51.243Z,1015.15
2018-06-20T13:12:00.969Z,1015.15
2018-06-20T13:13:10.159Z,1015.08
2018-06-20T13:14:19.566Z,1015.12
2018-06-20T13:15:28.974Z,1015.09
2018-06-20T13:16:38.134Z,1015.06
2018-06-20T13:17:47.288Z,1015.07
2018-06-20T13:18:56.706Z,1015.06
2018-06-20T13:20:05.934Z,1015.03
2018-06-20T13:21:16.044Z,1015.04
2018-06-20T13:22:25.545Z,1015.04
2018-06-20T13:23:34.704Z,1015.03
2018-06-20T13:24:43.876Z,1014.98
2018-06-20T13:25:53.043Z,1015.02
2018-06-20T13:27:02.475Z,1014.99
2018-06-20T13:28:11.920Z,1015.01
2018-06-20T13:29:21.079Z,1014.99
2018-06-20T13:30:30.270Z,1014.97
2018-06-20T13:31:39.719Z,1014.96
2018-06-20T13:32:48.882Z,1014.96
2018-06-20T13:33:58.059Z,1014.95
2018-06-20T13:35:07.753Z,1014.87
2018-06-20T13:36:17.706Z,1014.89
2018-06-20T13:37:27.145Z,1014.93
2018-06-20T13:38:36.601Z,1014.91
2018-06-20T13:39:46.081Z,1014.89
2018-06-20T13:40:55.336Z,1014.89
2018-06-20T13:42:04.819Z,1014.92
2018-06-20T13:43:14.274Z,1014.84
2018-06-20T13:44:23.440Z,1014.86
2018-06-20T13:45:32.613Z,1014.85
2018-06-20T13:46:42.052Z,1014.81
2018-06-20T13:47:51.223Z,1014.8
2018-06-20T13:49:00.931Z,1014.79
2018-06-20T13:50:10.074Z,1014.82
2018-06-20T13:51:19.762Z,1014.79
2018-06-20T13:52:28.929Z,1014.82
2018-06-20T13:53:38.607Z,1014.74
2018-06-20T13:54:47.772Z,1014.8
2018-06-20T13:55:57.013Z,1014.78
2018-06-20T13:57:07.091Z,1014.8
2018-06-20T13:58:16.795Z,1014.78
2018-06-20T13:59:26.052Z,1014.8
2018-06-20T14:00:34.655Z,1014.77
2018-06-20T14:01:44.356Z,1014.74
2018-06-20T14:02:53.733Z,1014.76